createdAt,value
2023-05-28T00:01:33.580Z,8.10
2023-05-28T00:04:00.720Z,9.70
2023-05-28T00:06:27.788Z,6.33
2023-05-28T00:08:54.720Z,8.70
2023-05-28T00:11:22.716Z,7.03
2023-05-28T00:13:49.695Z,7.87
2023-05-28T00:16:17.048Z,8.13
2023-05-28T00:18:44.047Z,9.70
2023-05-28T00:21:12.350Z,9.23
2023-05-28T00:23:39.439Z,10.03
2023-05-28T00:26:06.767Z,10.63
2023-05-28T00:28:33.698Z,6.83
2023-05-28T00:31:00.706Z,7.83
2023-05-28T00:33:27.635Z,9.73
2023-05-28T00:35:57.215Z,8.80
2023-05-28T00:38:24.630Z,11.57
2023-05-28T00:40:51.793Z,10.10
2023-05-28T00:43:20.410Z,8.77
2023-05-28T00:45:50.868Z,15.03
2023-05-28T00:48:19.179Z,7.70
2023-05-28T00:50:46.236Z,8.13
2023-05-28T00:53:16.109Z,7.87
2023-05-28T00:55:45.511Z,7.53
2023-05-28T00:58:12.936Z,9.60
2023-05-28T01:00:44.014Z,7.90
2023-05-28T01:03:11.249Z,10.63
2023-05-28T01:05:38.395Z,11.77
2023-05-28T01:08:08.451Z,10.33
2023-05-28T01:10:37.181Z,6.93
2023-05-28T01:13:08.358Z,8.80
2023-05-28T01:15:36.843Z,9.03
2023-05-28T01:18:05.432Z,5.60
2023-05-28T01:20:32.519Z,6.57
2023-05-28T01:23:18.153Z,11.77
2023-05-28T01:25:53.055Z,7.73
2023-05-28T01:28:22.978Z,11.43
2023-05-28T01:30:50.044Z,7.93
2023-05-28T01:33:17.463Z,7.37
2023-05-28T01:35:44.529Z,11.90
2023-05-28T01:38:15.999Z,8.63
2023-05-28T01:40:47.372Z,7.23
2023-05-28T01:43:16.084Z,6.00
2023-05-28T01:45:43.666Z,8.90
2023-05-28T01:48:12.256Z,5.73
2023-05-28T01:50:40.348Z,9.27
2023-05-28T01:53:07.322Z,10.03
2023-05-28T01:55:34.248Z,5.23
2023-05-28T01:58:01.193Z,7.60
2023-05-28T02:00:28.459Z,7.50
2023-05-28T02:02:55.483Z,10.33
2023-05-28T02:05:22.525Z,12.60
2023-05-28T02:07:49.451Z,10.87
2023-05-28T02:10:18.399Z,10.93
2023-05-28T02:12:45.457Z,10.80
2023-05-28T02:15:12.469Z,7.40
2023-05-28T02:17:40.659Z,8.10
2023-05-28T02:20:09.066Z,12.07
2023-05-28T02:22:36.084Z,9.70
2023-05-28T02:25:03.190Z,7.63
2023-05-28T02:27:31.259Z,7.13
2023-05-28T02:29:58.234Z,8.93
2023-05-28T02:32:25.289Z,9.00
2023-05-28T02:34:55.557Z,13.27
2023-05-28T02:37:24.882Z,7.70
2023-05-28T02:39:52.056Z,10.77
2023-05-28T02:42:18.991Z,7.43
2023-05-28T02:44:47.958Z,6.03
2023-05-28T02:47:14.973Z,7.07
2023-05-28T02:49:41.852Z,10.20
2023-05-28T02:52:08.832Z,8.23
2023-05-28T02:54:35.823Z,10.30
2023-05-28T02:57:03.130Z,9.90
2023-05-28T02:59:30.072Z,6.63
2023-05-28T03:01:56.978Z,8.93
2023-05-28T03:04:24.201Z,8.23
2023-05-28T03:06:51.410Z,9.10
2023-05-28T03:09:18.447Z,10.43
2023-05-28T03:11:45.324Z,9.17
2023-05-28T03:14:12.384Z,8.00
2023-05-28T03:16:39.311Z,10.90
2023-05-28T03:19:06.246Z,10.50
2023-05-28T03:21:36.225Z,8.10
2023-05-28T03:24:03.320Z,10.90
2023-05-28T03:26:30.585Z,7.37
2023-05-28T03:28:57.497Z,9.23
2023-05-28T03:31:33.061Z,7.17
2023-05-28T03:34:00.275Z,17.47
2023-05-28T03:36:28.266Z,8.77
2023-05-28T03:38:55.538Z,12.33
2023-05-28T03:41:24.532Z,11.07
2023-05-28T03:43:52.543Z,8.20
2023-05-28T03:46:19.496Z,7.90
2023-05-28T03:48:46.518Z,8.90
2023-05-28T03:51:13.417Z,5.43
2023-05-28T03:53:40.485Z,8.10
2023-05-28T03:56:08.476Z,7.17
2023-05-28T03:58:35.356Z,8.60
2023-05-28T04:01:02.609Z,8.80
2023-05-28T04:03:29.695Z,7.50
2023-05-28T04:05:56.921Z,6.53
2023-05-28T04:08:23.866Z,7.80
2023-05-28T04:10:50.752Z,7.23
2023-05-28T04:13:18.872Z,8.53
2023-05-28T04:15:45.894Z,6.23
2023-05-28T04:18:12.898Z,6.57
2023-05-28T04:20:39.863Z,8.90
2023-05-28T04:23:07.172Z,7.67
2023-05-28T04:25:34.131Z,9.30
2023-05-28T04:28:04.198Z,12.60
2023-05-28T04:30:31.519Z,10.80
2023-05-28T04:32:59.253Z,10.43
2023-05-28T04:35:27.155Z,5.77
2023-05-28T04:37:54.651Z,10.00
2023-05-28T04:40:22.259Z,10.87
2023-05-28T04:42:49.348Z,8.57
2023-05-28T04:45:17.187Z,7.83
2023-05-28T04:47:46.645Z,9.67
2023-05-28T04:50:13.635Z,14.93
2023-05-28T04:52:40.596Z,8.17
2023-05-28T04:55:08.511Z,10.67
2023-05-28T04:57:35.774Z,9.07
2023-05-28T05:00:04.399Z,7.83
2023-05-28T05:02:32.569Z,7.83
2023-05-28T05:04:59.624Z,5.70
2023-05-28T05:07:26.951Z,10.30
2023-05-28T05:09:53.905Z,9.93
2023-05-28T05:12:20.844Z,10.77
2023-05-28T05:14:48.833Z,7.70
2023-05-28T05:17:15.924Z,8.20
2023-05-28T05:19:42.863Z,8.10
2023-05-28T05:22:09.757Z,7.77
2023-05-28T05:24:36.715Z,9.73
2023-05-28T05:27:03.776Z,6.60
2023-05-28T05:29:30.729Z,4.80
2023-05-28T05:31:58.843Z,6.47
2023-05-28T05:34:25.869Z,12.23
2023-05-28T05:36:54.867Z,9.73
2023-05-28T05:39:21.784Z,6.60
2023-05-28T05:41:48.739Z,10.03
2023-05-28T05:44:15.906Z,8.27
2023-05-28T05:46:42.888Z,8.03
2023-05-28T05:49:12.864Z,11.53
2023-05-28T05:51:42.946Z,5.30
2023-05-28T05:54:09.874Z,11.13
2023-05-28T05:56:36.943Z,10.77
2023-05-28T05:59:04.006Z,6.33
2023-05-28T06:01:31.140Z,7.90
2023-05-28T06:03:58.153Z,10.00
2023-05-28T06:06:25.069Z,8.10
2023-05-28T06:08:51.996Z,10.00
2023-05-28T06:11:18.966Z,10.63
2023-05-28T06:13:47.887Z,8.47
2023-05-28T06:16:16.941Z,9.70
2023-05-28T06:18:43.859Z,14.23
2023-05-28T06:21:11.453Z,11.70
2023-05-28T06:23:40.693Z,9.27
2023-05-28T06:26:07.656Z,7.57
2023-05-28T06:28:34.587Z,9.53
2023-05-28T06:31:01.549Z,7.97
2023-05-28T06:33:28.469Z,6.60
2023-05-28T06:36:00.127Z,9.10
2023-05-28T06:38:27.053Z,8.20
2023-05-28T06:40:53.950Z,10.10
2023-05-28T06:43:21.902Z,8.60
2023-05-28T06:45:49.866Z,10.43
2023-05-28T06:48:16.771Z,9.37
2023-05-28T06:50:43.655Z,6.77
2023-05-28T06:53:10.548Z,10.83
2023-05-28T06:55:37.453Z,10.97
2023-05-28T06:58:04.435Z,7.53
2023-05-28T07:00:32.349Z,6.00
2023-05-28T07:02:59.603Z,8.97
2023-05-28T07:05:26.589Z,5.10
2023-05-28T07:07:53.749Z,7.00
2023-05-28T07:10:21.924Z,8.93
2023-05-28T07:12:48.824Z,12.93
2023-05-28T07:15:16.929Z,10.70
2023-05-28T07:17:43.881Z,6.70
2023-05-28T07:20:12.432Z,9.00
2023-05-28T07:22:39.372Z,7.23
2023-05-28T07:25:08.629Z,9.50
2023-05-28T07:27:35.681Z,11.83
2023-05-28T07:30:02.733Z,9.30
2023-05-28T07:32:31.771Z,5.47
2023-05-28T07:34:59.809Z,7.73
2023-05-28T07:37:26.877Z,6.30
2023-05-28T07:39:54.924Z,9.50
2023-05-28T07:42:21.895Z,11.97
2023-05-28T07:44:48.864Z,8.57
2023-05-28T07:47:16.641Z,8.27
2023-05-28T07:49:43.568Z,5.90
2023-05-28T07:52:12.266Z,7.27
2023-05-28T07:54:40.481Z,9.13
2023-05-28T07:57:07.477Z,7.10
2023-05-28T07:59:34.469Z,8.10
2023-05-28T08:03:39.564Z,9.33
2023-05-28T08:06:07.401Z,5.80
2023-05-28T08:08:34.375Z,7.47
2023-05-28T08:11:01.480Z,11.80
2023-05-28T08:13:28.440Z,10.10
2023-05-28T08:15:55.642Z,8.07
2023-05-28T08:18:22.888Z,6.60
2023-05-28T08:20:49.920Z,8.00
2023-05-28T08:23:17.054Z,5.90
2023-05-28T08:25:44.066Z,7.90
2023-05-28T08:28:11.244Z,11.30
2023-05-28T08:30:38.249Z,9.40
2023-05-28T08:33:05.527Z,8.93
2023-05-28T08:35:32.494Z,6.47
2023-05-28T08:37:59.525Z,5.77
2023-05-28T08:40:28.850Z,6.90
2023-05-28T08:42:56.296Z,6.43
2023-05-28T08:45:23.236Z,9.50
2023-05-28T08:47:52.306Z,9.97
2023-05-28T08:50:22.524Z,5.33
2023-05-28T08:52:50.312Z,8.13
2023-05-28T08:55:18.332Z,10.40
2023-05-28T08:57:47.805Z,6.83
2023-05-28T09:00:16.420Z,7.60
2023-05-28T09:02:43.436Z,10.50
2023-05-28T09:05:12.606Z,8.00
2023-05-28T09:07:39.584Z,9.37
2023-05-28T09:10:08.175Z,7.23
2023-05-28T09:12:35.735Z,11.77
2023-05-28T09:15:03.266Z,6.80
2023-05-28T09:17:40.296Z,8.23
2023-05-28T09:20:15.177Z,8.00
2023-05-28T09:22:44.979Z,5.53
2023-05-28T09:25:12.617Z,7.13
2023-05-28T09:27:45.455Z,5.80
2023-05-28T09:30:14.026Z,6.47
2023-05-28T09:32:41.978Z,6.00
2023-05-28T09:35:12.345Z,6.90
2023-05-28T09:37:40.376Z,5.27
2023-05-28T09:40:10.401Z,10.37
2023-05-28T09:42:42.635Z,6.20
2023-05-28T09:45:12.588Z,6.87
2023-05-28T09:47:47.560Z,4.93
2023-05-28T09:50:14.551Z,6.73
2023-05-28T09:52:46.027Z,7.30
2023-05-28T09:55:18.950Z,5.87
2023-05-28T09:58:06.762Z,11.57
2023-05-28T10:00:53.440Z,6.13
2023-05-28T10:03:39.533Z,6.30
2023-05-28T10:06:16.772Z,11.03
2023-05-28T10:08:52.402Z,9.43
2023-05-28T10:11:41.550Z,6.13
2023-05-28T10:14:10.619Z,9.37
2023-05-28T10:16:38.444Z,6.30
2023-05-28T10:19:05.948Z,9.47
2023-05-28T10:21:33.139Z,6.03
2023-05-28T10:24:00.880Z,8.03
2023-05-28T10:26:28.003Z,5.60
2023-05-28T10:28:58.469Z,6.40
2023-05-28T10:31:26.660Z,6.57
2023-05-28T10:33:53.738Z,6.17
2023-05-28T10:36:21.016Z,5.70
2023-05-28T10:38:53.638Z,7.97
2023-05-28T10:41:23.250Z,6.60
2023-05-28T10:43:54.131Z,7.30
2023-05-28T10:46:41.399Z,5.40
2023-05-28T10:49:17.788Z,4.83
2023-05-28T10:52:01.563Z,5.23
2023-05-28T10:54:34.267Z,8.03
2023-05-28T10:57:14.121Z,6.67
2023-05-28T10:59:53.334Z,8.20
2023-05-28T11:02:28.848Z,5.23
2023-05-28T11:05:01.431Z,5.50
2023-05-28T11:07:39.829Z,6.80
2023-05-28T11:10:16.914Z,5.93
2023-05-28T11:12:48.135Z,4.47
2023-05-28T11:15:15.468Z,6.93
2023-05-28T11:17:46.151Z,4.83
2023-05-28T11:20:29.143Z,4.67
2023-05-28T11:22:58.902Z,5.50
2023-05-28T11:25:28.947Z,6.67
2023-05-28T11:27:58.532Z,8.33
2023-05-28T11:30:25.932Z,3.63
2023-05-28T11:32:55.437Z,4.93
2023-05-28T11:35:22.732Z,4.40
2023-05-28T11:37:49.816Z,6.57
2023-05-28T11:40:17.474Z,4.70
2023-05-28T11:42:46.002Z,7.03
2023-05-28T11:45:14.277Z,6.97
2023-05-28T11:47:43.507Z,5.97
2023-05-28T11:50:16.130Z,8.10
2023-05-28T11:52:46.150Z,4.60
2023-05-28T11:55:16.905Z,9.03
2023-05-28T11:57:56.814Z,5.20
2023-05-28T12:00:34.885Z,7.00
2023-05-28T12:03:02.047Z,6.27
2023-05-28T12:05:39.316Z,4.67
2023-05-28T12:08:06.569Z,4.43
2023-05-28T12:10:33.577Z,7.00
2023-05-28T12:13:01.409Z,4.80
2023-05-28T12:15:32.759Z,7.07
2023-05-28T12:18:04.844Z,6.60
2023-05-28T12:20:36.136Z,4.83
2023-05-28T12:23:13.192Z,5.57
2023-05-28T12:25:51.987Z,8.27
2023-05-28T12:28:22.855Z,5.43
2023-05-28T12:30:54.806Z,5.57
2023-05-28T12:33:23.438Z,5.93
2023-05-28T12:35:51.484Z,8.37
2023-05-28T12:38:20.208Z,6.27
2023-05-28T12:40:47.143Z,6.00
2023-05-28T12:43:16.431Z,5.60
2023-05-28T12:45:43.638Z,5.43
2023-05-28T12:48:11.054Z,6.63
2023-05-28T12:50:38.091Z,6.37
2023-05-28T12:53:05.774Z,5.20
2023-05-28T12:55:33.515Z,5.13
2023-05-28T12:58:00.928Z,5.70
2023-05-28T13:00:28.087Z,4.10
2023-05-28T13:02:55.028Z,6.97
2023-05-28T13:05:22.246Z,4.80
2023-05-28T13:07:49.190Z,8.90
2023-05-28T13:10:16.115Z,6.47
2023-05-28T13:12:43.067Z,4.10
2023-05-28T13:15:11.150Z,5.63
2023-05-28T13:17:38.133Z,10.30
2023-05-28T13:20:08.413Z,7.40
2023-05-28T13:22:37.828Z,8.17
2023-05-28T13:25:06.378Z,5.70
2023-05-28T13:27:33.793Z,4.70
2023-05-28T13:30:01.975Z,4.07
2023-05-28T13:32:29.163Z,5.50
2023-05-28T13:34:56.147Z,3.90
2023-05-28T13:37:23.099Z,9.67
2023-05-28T13:39:50.062Z,4.40
2023-05-28T13:42:20.213Z,6.90
2023-05-28T13:44:52.270Z,5.13
2023-05-28T13:47:19.966Z,5.37
2023-05-28T13:49:46.918Z,4.53
2023-05-28T13:52:14.083Z,4.17
2023-05-28T13:54:42.471Z,4.87
2023-05-28T13:57:11.402Z,4.20
2023-05-28T13:59:38.407Z,4.23
2023-05-28T14:02:05.890Z,6.90
2023-05-28T14:04:33.134Z,5.40
2023-05-28T14:07:00.111Z,5.67
2023-05-28T14:09:27.358Z,6.50
2023-05-28T14:12:17.813Z,6.67
2023-05-28T14:14:42.317Z,4.10
2023-05-28T14:17:09.319Z,3.83
2023-05-28T14:19:36.383Z,7.33
2023-05-28T14:22:03.599Z,4.70
2023-05-28T14:24:33.356Z,4.87
2023-05-28T14:27:01.153Z,4.23
2023-05-28T14:29:28.147Z,4.90
2023-05-28T14:31:55.320Z,4.87
2023-05-28T14:34:22.289Z,3.73
2023-05-28T14:36:49.288Z,4.60
2023-05-28T14:39:16.405Z,3.87
2023-05-28T14:41:43.457Z,5.00
2023-05-28T14:44:11.856Z,3.63
2023-05-28T14:46:39.190Z,4.63
2023-05-28T14:49:06.250Z,4.00
2023-05-28T14:51:33.288Z,5.60
2023-05-28T14:54:00.438Z,3.90
2023-05-28T14:56:27.967Z,4.87
2023-05-28T14:58:54.918Z,6.67
2023-05-28T15:01:21.896Z,6.97
2023-05-28T15:03:49.075Z,5.33
2023-05-28T15:06:16.349Z,8.87
2023-05-28T15:08:44.037Z,4.20
2023-05-28T15:11:16.177Z,5.90
2023-05-28T15:13:43.120Z,5.23
2023-05-28T15:16:10.920Z,4.60
2023-05-28T15:18:37.966Z,3.87
2023-05-28T15:21:05.271Z,4.13
2023-05-28T15:23:33.420Z,4.90
2023-05-28T15:26:00.619Z,4.93
2023-05-28T15:28:27.946Z,5.70
2023-05-28T15:30:55.745Z,4.83
2023-05-28T15:33:23.436Z,5.73
2023-05-28T15:35:50.745Z,7.40
2023-05-28T15:38:18.315Z,4.43
2023-05-28T15:40:46.822Z,4.77
2023-05-28T15:43:14.013Z,4.10
2023-05-28T15:45:41.106Z,8.23
2023-05-28T15:48:08.186Z,4.90
2023-05-28T15:50:36.020Z,4.80
2023-05-28T15:53:03.759Z,4.30
2023-05-28T15:55:30.989Z,4.23
2023-05-28T15:57:58.188Z,6.17
2023-05-28T16:00:25.931Z,5.17
2023-05-28T16:02:55.532Z,7.50
2023-05-28T16:05:23.191Z,4.80
2023-05-28T16:07:50.610Z,4.70
2023-05-28T16:10:17.834Z,4.93
2023-05-28T16:12:45.280Z,5.90
2023-05-28T16:15:12.776Z,4.67
2023-05-28T16:17:40.319Z,4.83
2023-05-28T16:20:11.396Z,3.70
2023-05-28T16:22:39.902Z,5.83
2023-05-28T16:25:08.195Z,6.77
2023-05-28T16:27:36.389Z,4.10
2023-05-28T16:30:05.737Z,6.77
2023-05-28T16:32:33.952Z,4.10
2023-05-28T16:35:01.873Z,4.93
2023-05-28T16:37:30.161Z,4.73
2023-05-28T16:39:57.325Z,4.93
2023-05-28T16:42:24.759Z,9.23
2023-05-28T16:44:52.271Z,4.67
2023-05-28T16:47:19.801Z,5.87
2023-05-28T16:49:46.866Z,5.57
2023-05-28T16:52:13.944Z,6.00
2023-05-28T16:54:41.888Z,5.33
2023-05-28T16:57:08.969Z,4.80
2023-05-28T16:59:39.253Z,3.20
2023-05-28T17:02:07.225Z,6.53
2023-05-28T17:04:34.219Z,3.70
2023-05-28T17:07:01.289Z,5.27
2023-05-28T17:09:29.176Z,5.17
2023-05-28T17:11:56.151Z,4.20
2023-05-28T17:14:23.210Z,7.43
2023-05-28T17:16:50.749Z,8.00
2023-05-28T17:19:17.915Z,6.03
2023-05-28T17:21:46.166Z,9.23
2023-05-28T17:24:14.454Z,7.53
2023-05-28T17:26:41.511Z,4.80
2023-05-28T17:29:09.487Z,4.30
2023-05-28T17:31:36.861Z,5.90
2023-05-28T17:34:05.017Z,5.70
2023-05-28T17:36:32.868Z,7.57
2023-05-28T17:39:00.497Z,5.47
2023-05-28T17:41:28.278Z,5.10
2023-05-28T17:43:55.616Z,4.53
2023-05-28T17:46:35.752Z,5.07
2023-05-28T17:49:03.618Z,5.47
2023-05-28T17:51:31.352Z,3.77
2023-05-28T17:53:58.296Z,3.40
2023-05-28T17:56:26.763Z,10.90
2023-05-28T17:58:53.872Z,5.10
2023-05-28T18:01:20.982Z,7.00
2023-05-28T18:03:48.142Z,10.43
2023-05-28T18:06:15.281Z,4.50
2023-05-28T18:08:44.266Z,5.10
2023-05-28T18:11:11.387Z,4.80
2023-05-28T18:13:38.343Z,3.90
2023-05-28T18:16:05.672Z,4.87
2023-05-28T18:18:33.027Z,5.00
2023-05-28T18:21:00.283Z,3.90
2023-05-28T18:23:28.899Z,9.90
2023-05-28T18:25:55.981Z,6.20
2023-05-28T18:28:26.688Z,4.20
2023-05-28T18:30:55.419Z,5.43
2023-05-28T18:33:22.702Z,3.93
2023-05-28T18:35:49.836Z,5.50
2023-05-28T18:38:18.813Z,5.47
2023-05-28T18:40:45.759Z,5.17
2023-05-28T18:43:19.967Z,5.50
2023-05-28T18:45:49.319Z,5.37
2023-05-28T18:48:16.603Z,6.17
2023-05-28T18:50:43.588Z,4.43
2023-05-28T18:53:12.571Z,4.63
2023-05-28T18:55:39.460Z,6.83
2023-05-28T18:58:06.416Z,6.80
2023-05-28T19:00:33.528Z,4.50
2023-05-28T19:03:00.494Z,5.53
2023-05-28T19:05:27.436Z,5.97
2023-05-28T19:07:54.356Z,6.07
2023-05-28T19:10:22.366Z,5.90
2023-05-28T19:12:49.433Z,6.20
2023-05-28T19:15:16.560Z,7.83
2023-05-28T19:17:43.612Z,8.30
2023-05-28T19:20:11.279Z,6.00
2023-05-28T19:22:41.022Z,4.03
2023-05-28T19:25:11.026Z,6.00
2023-05-28T19:27:40.410Z,4.90
2023-05-28T19:30:09.615Z,4.33
2023-05-28T19:32:38.448Z,7.17
2023-05-28T19:35:07.167Z,4.63
2023-05-28T19:37:34.192Z,5.70
2023-05-28T19:40:01.143Z,9.63
2023-05-28T19:42:30.049Z,25.10
2023-05-28T19:44:57.732Z,21.60
2023-05-28T19:47:26.496Z,19.20
2023-05-28T19:49:53.394Z,12.47
2023-05-28T19:52:20.406Z,29.23
2023-05-28T19:54:48.970Z,26.07
2023-05-28T19:57:16.214Z,20.93
2023-05-28T19:59:43.291Z,22.60
2023-05-28T20:02:10.307Z,20.93
2023-05-28T20:04:38.489Z,12.53
2023-05-28T20:07:06.209Z,9.23
2023-05-28T20:09:33.226Z,5.90
2023-05-28T20:12:00.502Z,4.33
2023-05-28T20:14:27.623Z,7.70
2023-05-28T20:16:54.538Z,7.30
2023-05-28T20:19:25.123Z,7.80
2023-05-28T20:21:52.280Z,5.73
2023-05-28T20:24:19.788Z,4.23
2023-05-28T20:26:50.794Z,4.77
2023-05-28T20:29:20.940Z,5.63
2023-05-28T20:31:47.949Z,5.60
2023-05-28T20:34:15.024Z,5.10
2023-05-28T20:36:41.983Z,4.67
2023-05-28T20:39:09.364Z,6.97
2023-05-28T20:41:40.936Z,5.93
2023-05-28T20:44:07.874Z,7.27
2023-05-28T20:46:35.270Z,4.53
2023-05-28T20:49:02.248Z,6.73
2023-05-28T20:51:29.192Z,6.13
2023-05-28T20:54:02.192Z,5.00
2023-05-28T20:56:30.288Z,4.13
2023-05-28T20:58:58.115Z,6.27
2023-05-28T21:01:25.578Z,6.83
2023-05-28T21:03:53.258Z,8.23
2023-05-28T21:06:20.311Z,9.53
2023-05-28T21:08:48.199Z,6.53
2023-05-28T21:11:15.353Z,4.50
2023-05-28T21:13:42.454Z,5.47
2023-05-28T21:16:09.482Z,7.00
2023-05-28T21:18:36.401Z,4.90
2023-05-28T21:21:03.711Z,5.10
2023-05-28T21:23:31.087Z,5.70
2023-05-28T21:25:58.104Z,6.30
2023-05-28T21:28:25.071Z,4.87
2023-05-28T21:30:54.459Z,4.63
2023-05-28T21:33:22.851Z,4.20
2023-05-28T21:35:50.460Z,5.70
2023-05-28T21:38:17.488Z,4.10
2023-05-28T21:40:44.417Z,7.50
2023-05-28T21:43:11.596Z,5.73
2023-05-28T21:45:38.662Z,5.30
2023-05-28T21:48:06.961Z,4.23
2023-05-28T21:50:34.444Z,5.90
2023-05-28T21:53:01.425Z,9.33
2023-05-28T21:55:28.435Z,4.90
2023-05-28T21:57:55.399Z,5.40
2023-05-28T22:00:23.699Z,6.93
2023-05-28T22:02:50.817Z,10.30
2023-05-28T22:05:22.447Z,13.83
2023-05-28T22:07:51.887Z,3.63
2023-05-28T22:10:20.733Z,4.50
2023-05-28T22:12:50.623Z,5.13
2023-05-28T22:15:17.700Z,7.27
2023-05-28T22:17:45.714Z,7.57
2023-05-28T22:20:14.306Z,4.20
2023-05-28T22:22:42.794Z,4.50
2023-05-28T22:25:11.911Z,9.27
2023-05-28T22:27:40.551Z,5.43
2023-05-28T22:30:08.613Z,5.60
2023-05-28T22:32:35.786Z,6.50
2023-05-28T22:35:05.416Z,10.43
2023-05-28T22:37:32.506Z,5.30
2023-05-28T22:39:59.670Z,6.77
2023-05-28T22:42:26.899Z,6.30
2023-05-28T22:44:54.035Z,5.30
2023-05-28T22:47:21.939Z,4.90
2023-05-28T22:49:48.896Z,4.77
2023-05-28T22:52:15.932Z,6.77
2023-05-28T22:54:43.267Z,5.33
2023-05-28T22:57:10.288Z,6.40
2023-05-28T22:59:37.256Z,5.70
2023-05-28T23:02:04.349Z,5.97
2023-05-28T23:04:31.799Z,6.63
2023-05-28T23:06:59.183Z,7.13
2023-05-28T23:09:26.291Z,8.33
2023-05-28T23:11:53.341Z,6.73
2023-05-28T23:14:20.237Z,4.17
2023-05-28T23:16:47.626Z,5.27
2023-05-28T23:19:16.092Z,7.23
2023-05-28T23:21:43.475Z,5.60
2023-05-28T23:24:10.635Z,7.13
2023-05-28T23:26:37.531Z,6.53
2023-05-28T23:29:04.759Z,5.50
2023-05-28T23:31:32.893Z,7.03
2023-05-28T23:34:00.631Z,5.40
2023-05-28T23:36:29.361Z,5.93
2023-05-28T23:38:57.132Z,5.00
2023-05-28T23:41:24.144Z,5.27
2023-05-28T23:43:51.083Z,7.90
2023-05-28T23:46:18.238Z,4.90
2023-05-28T23:48:45.188Z,7.43
2023-05-28T23:51:12.423Z,6.13
2023-05-28T23:53:39.347Z,7.93
2023-05-28T23:56:06.957Z,7.23
2023-05-28T23:58:33.898Z,5.73
